createdAt,value
2022-08-30T00:02:03.345Z,16.10
2022-08-30T00:07:05.214Z,16.10
2022-08-30T00:12:07.307Z,16.00
2022-08-30T00:17:09.084Z,16.00
2022-08-30T00:22:11.212Z,16.00
2022-08-30T00:27:13.152Z,15.90
2022-08-30T00:32:16.389Z,16.00
2022-08-30T00:37:18.990Z,15.90
2022-08-30T00:42:22.326Z,15.90
2022-08-30T00:47:24.589Z,15.90
2022-08-30T00:52:27.152Z,15.90
2022-08-30T00:57:30.861Z,15.90
2022-08-30T01:02:33.630Z,15.90
2022-08-30T01:07:35.538Z,15.90
2022-08-30T01:12:39.805Z,15.90
2022-08-30T01:17:46.824Z,15.90
2022-08-30T01:22:51.659Z,15.80
2022-08-30T01:28:07.300Z,15.70
2022-08-30T01:33:10.664Z,15.60
2022-08-30T01:38:14.216Z,15.60
2022-08-30T01:43:17.635Z,15.60
2022-08-30T01:48:22.122Z,15.60
2022-08-30T01:53:30.479Z,15.60
2022-08-30T01:58:32.273Z,15.60
2022-08-30T02:03:35.479Z,15.60
2022-08-30T02:08:38.268Z,15.50
2022-08-30T02:13:41.853Z,15.60
2022-08-30T02:18:44.133Z,15.60
2022-08-30T02:23:46.210Z,15.50
2022-08-30T02:28:49.885Z,15.40
2022-08-30T02:33:53.535Z,15.30
2022-08-30T02:38:55.382Z,15.30
2022-08-30T02:43:59.380Z,15.30
2022-08-30T02:49:13.026Z,15.30
2022-08-30T02:54:23.668Z,15.30
2022-08-30T02:59:26.846Z,15.20
2022-08-30T03:04:28.737Z,15.20
2022-08-30T03:09:30.578Z,15.10
2022-08-30T03:14:32.786Z,15.10
2022-08-30T03:19:36.479Z,15.10
2022-08-30T03:24:38.830Z,15.00
2022-08-30T03:29:40.779Z,15.00
2022-08-30T03:34:42.579Z,15.00
2022-08-30T03:39:45.551Z,15.00
2022-08-30T03:44:47.352Z,14.90
2022-08-30T03:49:49.205Z,14.90
2022-08-30T03:54:51.064Z,14.90
2022-08-30T03:59:52.902Z,14.90
2022-08-30T04:04:54.709Z,14.90
2022-08-30T04:09:56.853Z,14.90
2022-08-30T04:14:58.977Z,14.80
2022-08-30T04:20:00.794Z,14.80
2022-08-30T04:25:03.958Z,14.80
2022-08-30T04:30:06.730Z,14.80
2022-08-30T04:35:09.880Z,14.70
2022-08-30T04:40:12.397Z,14.70
2022-08-30T04:45:16.373Z,14.70
2022-08-30T04:50:20.247Z,14.60
2022-08-30T04:55:22.146Z,14.70
2022-08-30T05:00:24.005Z,14.70
2022-08-30T05:05:40.934Z,14.80
2022-08-30T05:10:47.313Z,14.90
2022-08-30T05:15:49.224Z,15.00
2022-08-30T05:20:51.001Z,15.10
2022-08-30T05:25:52.795Z,15.20
2022-08-30T05:30:54.746Z,15.30
2022-08-30T05:35:56.531Z,15.40
2022-08-30T05:40:58.306Z,15.50
2022-08-30T05:46:03.923Z,15.50
2022-08-30T05:51:11.579Z,15.60
2022-08-30T05:56:16.058Z,15.80
2022-08-30T06:01:35.926Z,15.90
2022-08-30T06:06:40.514Z,16.10
2022-08-30T06:11:43.654Z,16.20
2022-08-30T06:16:46.103Z,16.40
2022-08-30T06:21:49.936Z,16.50
2022-08-30T06:26:51.833Z,16.70
2022-08-30T06:31:53.656Z,16.90
2022-08-30T06:36:55.409Z,17.00
2022-08-30T06:41:57.164Z,17.10
2022-08-30T06:47:02.015Z,17.20
2022-08-30T06:52:04.484Z,17.40
2022-08-30T06:57:06.302Z,17.30
2022-08-30T07:02:08.774Z,17.30
2022-08-30T07:07:11.511Z,17.60
2022-08-30T07:12:13.941Z,17.60
2022-08-30T07:17:34.990Z,17.50
2022-08-30T07:22:36.871Z,17.70
2022-08-30T07:27:38.725Z,17.70
2022-08-30T07:32:41.153Z,18.00
2022-08-30T07:37:42.953Z,18.00
2022-08-30T07:42:44.796Z,18.10
2022-08-30T07:47:46.617Z,18.10
2022-08-30T07:52:48.386Z,18.10
2022-08-30T07:57:50.186Z,18.40
2022-08-30T08:02:52.031Z,18.40
2022-08-30T08:07:53.840Z,18.60
2022-08-30T08:12:55.596Z,18.60
2022-08-30T08:17:57.461Z,18.50
2022-08-30T08:22:59.520Z,18.80
2022-08-30T08:28:02.012Z,19.00
2022-08-30T08:33:05.431Z,19.30
2022-08-30T08:38:07.301Z,19.40
2022-08-30T08:43:15.527Z,19.50
2022-08-30T08:48:59.079Z,19.70
2022-08-30T08:54:11.023Z,19.90
2022-08-30T08:59:14.957Z,19.80
2022-08-30T09:04:24.546Z,19.90
2022-08-30T09:09:40.953Z,20.00
2022-08-30T09:14:51.479Z,20.20
2022-08-30T09:20:00.004Z,20.10
2022-08-30T09:25:09.549Z,19.70
2022-08-30T09:30:18.503Z,19.30
2022-08-30T09:35:26.514Z,19.30
2022-08-30T09:40:36.891Z,19.40
2022-08-30T09:45:49.671Z,19.40
2022-08-30T09:51:03.063Z,19.50
2022-08-30T09:56:18.647Z,19.70
2022-08-30T10:01:27.912Z,20.00
2022-08-30T10:06:52.464Z,20.10
2022-08-30T10:12:24.289Z,20.30
2022-08-30T10:18:07.430Z,20.50
2022-08-30T10:23:30.665Z,21.00
2022-08-30T10:28:50.245Z,21.00
2022-08-30T10:33:57.099Z,21.10
2022-08-30T10:39:02.399Z,21.50
2022-08-30T10:44:22.663Z,21.40
2022-08-30T10:49:28.424Z,21.40
2022-08-30T10:54:53.189Z,21.60
2022-08-30T11:00:02.793Z,21.70
2022-08-30T11:05:30.113Z,21.90
2022-08-30T11:10:52.166Z,22.20
2022-08-30T11:16:05.509Z,22.20
2022-08-30T11:21:37.562Z,22.40
2022-08-30T11:26:45.561Z,22.30
2022-08-30T11:31:47.902Z,22.30
2022-08-30T11:36:53.423Z,22.50
2022-08-30T11:42:37.085Z,22.80
2022-08-30T11:47:59.616Z,22.60
2022-08-30T11:53:14.445Z,22.70
2022-08-30T11:58:43.894Z,22.70
2022-08-30T12:04:03.048Z,22.70
2022-08-30T12:09:08.378Z,22.50
2022-08-30T12:14:36.493Z,22.50
2022-08-30T12:19:49.040Z,22.30
2022-08-30T12:24:54.575Z,22.90
2022-08-30T12:29:59.458Z,23.20
2022-08-30T12:35:06.069Z,23.40
2022-08-30T12:40:21.661Z,23.30
2022-08-30T12:45:31.734Z,23.50
2022-08-30T12:50:57.312Z,23.70
2022-08-30T12:56:03.534Z,23.90
2022-08-30T13:01:31.348Z,23.70
2022-08-30T13:06:39.960Z,24.00
2022-08-30T13:11:49.120Z,23.60
2022-08-30T13:16:50.994Z,23.80
2022-08-30T13:21:55.440Z,23.80
2022-08-30T13:27:07.824Z,24.00
2022-08-30T13:32:10.285Z,23.70
2022-08-30T13:42:42.007Z,23.80
2022-08-30T13:47:46.742Z,23.20
2022-08-30T13:52:48.681Z,22.90
2022-08-30T13:57:54.389Z,22.80
2022-08-30T14:03:00.197Z,22.80
2022-08-30T14:08:02.665Z,22.70
2022-08-30T14:13:18.440Z,23.00
2022-08-30T14:18:20.436Z,23.30
2022-08-30T14:23:25.929Z,22.90
2022-08-30T14:28:29.897Z,22.60
2022-08-30T14:33:32.353Z,22.40
2022-08-30T14:38:34.161Z,22.00
2022-08-30T14:43:37.692Z,22.10
2022-08-30T14:48:41.642Z,22.30
2022-08-30T14:53:45.830Z,22.20
2022-08-30T14:58:53.641Z,22.10
2022-08-30T15:03:56.298Z,22.00
2022-08-30T15:08:58.629Z,21.80
2022-08-30T15:14:01.879Z,21.50
2022-08-30T15:19:05.693Z,21.60
2022-08-30T15:24:09.254Z,21.50
2022-08-30T15:29:13.302Z,21.40
2022-08-30T15:34:18.474Z,21.50
2022-08-30T15:39:20.372Z,21.50
2022-08-30T15:44:22.190Z,21.50
2022-08-30T15:49:24.717Z,21.80
2022-08-30T15:54:26.529Z,21.90
2022-08-30T15:59:30.838Z,21.80
2022-08-30T16:04:32.723Z,21.80
2022-08-30T16:09:35.320Z,21.70
2022-08-30T16:14:39.848Z,21.60
2022-08-30T16:19:42.089Z,21.50
2022-08-30T16:24:44.444Z,21.50
2022-08-30T16:29:50.149Z,21.40
2022-08-30T16:34:52.110Z,21.60
2022-08-30T16:39:53.854Z,21.20
2022-08-30T16:44:55.650Z,21.20
2022-08-30T16:50:00.726Z,21.00
2022-08-30T16:55:02.624Z,21.00
2022-08-30T17:00:13.268Z,21.10
2022-08-30T17:05:15.467Z,20.90
2022-08-30T17:10:22.989Z,20.80
2022-08-30T17:15:27.205Z,20.60
2022-08-30T17:20:33.927Z,20.50
2022-08-30T17:25:36.733Z,20.50
2022-08-30T17:30:38.521Z,20.40
2022-08-30T17:35:42.047Z,20.30
2022-08-30T17:40:43.928Z,20.20
2022-08-30T17:45:45.749Z,20.20
2022-08-30T17:50:55.781Z,20.10
2022-08-30T17:55:58.590Z,20.00
2022-08-30T18:01:11.629Z,19.90
2022-08-30T18:06:15.309Z,19.70
2022-08-30T18:11:18.341Z,19.40
2022-08-30T18:16:21.536Z,19.20
2022-08-30T18:21:28.472Z,19.10
2022-08-30T18:26:32.026Z,19.00
2022-08-30T18:31:33.865Z,18.90
2022-08-30T18:36:35.820Z,18.80
2022-08-30T18:41:43.185Z,18.60
2022-08-30T18:46:55.891Z,18.50
2022-08-30T18:51:58.378Z,18.50
2022-08-30T18:57:00.184Z,18.40
2022-08-30T19:02:02.292Z,18.40
2022-08-30T19:07:07.149Z,18.30
2022-08-30T19:12:09.881Z,18.20
2022-08-30T19:17:14.141Z,18.20
2022-08-30T19:22:16.163Z,18.10
2022-08-30T19:27:21.456Z,18.00
2022-08-30T19:32:39.167Z,17.90
2022-08-30T19:37:42.261Z,17.90
2022-08-30T19:42:46.005Z,17.80
2022-08-30T19:47:48.989Z,17.80
2022-08-30T19:52:54.653Z,17.70
2022-08-30T19:57:57.054Z,17.70
2022-08-30T20:03:01.619Z,17.60
2022-08-30T20:08:03.954Z,17.50
2022-08-30T20:13:06.018Z,17.40
2022-08-30T20:18:14.786Z,17.30
2022-08-30T20:23:19.714Z,17.20
2022-08-30T20:28:25.649Z,17.10
2022-08-30T20:33:27.589Z,17.10
2022-08-30T20:38:29.430Z,17.00
2022-08-30T20:43:31.562Z,16.90
2022-08-30T20:48:33.769Z,16.80
2022-08-30T20:53:36.029Z,16.70
2022-08-30T20:58:37.841Z,16.60
2022-08-30T21:03:40.921Z,16.50
2022-08-30T21:08:43.278Z,16.40
2022-08-30T21:13:45.396Z,16.30
2022-08-30T21:18:47.191Z,16.30
2022-08-30T21:23:50.105Z,16.20
2022-08-30T21:28:53.947Z,16.10
2022-08-30T21:33:56.252Z,16.00
2022-08-30T21:39:00.923Z,15.90
2022-08-30T21:44:07.163Z,15.80
2022-08-30T21:49:11.665Z,15.90
2022-08-30T21:54:15.976Z,15.80
2022-08-30T21:59:19.474Z,15.90
2022-08-30T22:04:26.132Z,15.90
2022-08-30T22:09:28.187Z,15.90
2022-08-30T22:14:31.433Z,15.90
2022-08-30T22:19:34.369Z,15.90
2022-08-30T22:24:36.151Z,15.90
2022-08-30T22:29:38.548Z,16.00
2022-08-30T22:34:40.565Z,16.00
2022-08-30T22:39:42.381Z,15.90
2022-08-30T22:44:44.158Z,15.80
2022-08-30T22:49:45.957Z,15.70
2022-08-30T22:54:49.381Z,15.70
2022-08-30T22:59:51.888Z,15.60
2022-08-30T23:04:53.743Z,15.50
2022-08-30T23:09:57.923Z,15.50
2022-08-30T23:14:59.713Z,15.40
2022-08-30T23:20:01.979Z,15.30
2022-08-30T23:25:22.990Z,15.20
2022-08-30T23:30:46.226Z,15.20
2022-08-30T23:36:06.892Z,15.10
2022-08-30T23:41:28.223Z,15.10
2022-08-30T23:46:54.877Z,15.10
2022-08-30T23:52:15.404Z,15.00
2022-08-30T23:57:36.117Z,15.00
